Time;durP1;ratioP1;P1;durP2;ratioP2;P2;SDS_P1;SDS_P2;PMS_P1;PMS_P2;Temp;Humidity;BMP_temperature;BMP_pressure;BME280_temperature;BME280_humidity;BME280_pressure;Samples;Min_cycle;Max_cycle;Signal;HPM_P1;HPM_P2
2023/10/10 00:00:23;;;;;;;;;;;;;;;13.16;70.08;100741.97;5418150;32;35205;-70
2023/10/10 00:03:27;;;;;;;;;;;;;;;13.35;68.15;100740.25;5418379;32;34687;-70
2023/10/10 00:06:29;;;;;;;;;;;;;;;14.11;65.08;100737.63;5416517;32;35384;-69
2023/10/10 00:09:31;;;;;;;;;;;;;;;14.13;64.00;100730.47;5424898;32;34387;-70
2023/10/10 00:12:36;;;;;;;;;;;;;;;13.90;64.66;100735.06;5421579;32;34080;-69
2023/10/10 00:15:49;;;;;;;;;;;;;;;13.80;64.93;100745.22;5421962;32;34660;-70
2023/10/10 00:18:55;;;;;;;;;;;;;;;13.67;65.55;100748.50;5424613;32;34599;-71
2023/10/10 00:21:57;;;;;;;;;;;;;;;13.46;66.75;100756.47;5421434;32;35410;-75
2023/10/10 00:25:04;;;;;;;;;;;;;;;12.62;70.59;100768.00;5406153;32;34966;-74
2023/10/10 00:28:18;;;;;;;;;;;;;;;13.04;69.33;100760.97;5420811;32;35419;-72
2023/10/10 00:31:22;;;;;;;;;;;;;;;13.75;65.51;100751.63;5417378;32;35460;-69
2023/10/10 00:34:28;;;;;;;;;;;;;;;12.53;70.04;100767.50;5406354;32;34375;-69
2023/10/10 00:37:34;;;;;;;;;;;;;;;12.12;73.33;100783.22;5419299;32;34599;-71
2023/10/10 00:40:39;;;;;;;;;;;;;;;12.54;70.31;100790.31;5425080;32;35166;-70
2023/10/10 00:43:41;;;;;;;;;;;;;;;12.13;74.86;100791.06;5418555;32;35413;-73
2023/10/10 00:46:51;;;;;;;;;;;;;;;11.95;75.32;100786.50;5425220;32;35536;-70
2023/10/10 00:49:54;;;;;;;;;;;;;;;11.29;77.55;100790.69;5419127;32;34995;-73
2023/10/10 00:52:56;;;;;;;;;;;;;;;11.58;76.74;100795.72;5419341;32;34944;-74
2023/10/10 00:55:59;;;;;;;;;;;;;;;11.41;77.67;100789.37;5419938;32;34956;-70
2023/10/10 00:59:03;;;;;;;;;;;;;;;11.42;78.33;100786.69;5418714;32;34628;-75
2023/10/10 01:02:05;;;;;;;;;;;;;;;12.43;71.73;100796.03;5425930;32;34334;-74
2023/10/10 01:05:15;;;;;;;;;;;;;;;11.14;75.67;100805.22;5404937;32;34824;-73
2023/10/10 01:08:17;;;;;;;;;;;;;;;11.29;76.98;100802.06;5423418;32;34934;-73
2023/10/10 01:11:19;;;;;;;;;;;;;;;12.21;72.01;100790.75;5420830;32;35706;-74
2023/10/10 01:14:26;;;;;;;;;;;;;;;11.84;72.78;100800.06;5416730;32;36102;-70
2023/10/10 01:17:29;;;;;;;;;;;;;;;11.84;72.77;100807.97;5425734;32;35141;-70
2023/10/10 01:20:34;;;;;;;;;;;;;;;12.22;71.46;100817.97;5410718;32;35205;-69
2023/10/10 01:23:37;;;;;;;;;;;;;;;11.49;75.92;100818.91;5410923;32;35551;-69
2023/10/10 01:26:45;;;;;;;;;;;;;;;11.15;78.00;100824.53;5420852;32;34828;-69
2023/10/10 01:29:56;;;;;;;;;;;;;;;11.01;79.52;100830.22;5411523;32;34527;-69
2023/10/10 01:33:00;;;;;;;;;;;;;;;11.14;79.76;100818.38;5421368;32;35785;-74
2023/10/10 01:36:03;;;;;;;;;;;;;;;11.42;79.14;100817.41;5412529;32;35152;-70
2023/10/10 01:39:08;;;;;;;;;;;;;;;11.97;75.96;100820.69;5412731;32;35145;-69
2023/10/10 01:42:13;;;;;;;;;;;;;;;11.85;75.00;100814.97;5412582;32;35057;-68
2023/10/10 01:45:18;;;;;;;;;;;;;;;11.61;76.65;100808.81;5426619;32;34961;-69
2023/10/10 01:48:23;;;;;;;;;;;;;;;11.89;75.42;100806.03;5424064;32;34960;-73
2023/10/10 01:51:25;;;;;;;;;;;;;;;12.05;74.42;100808.09;5423192;32;35304;-70
2023/10/10 01:54:41;;;;;;;;;;;;;;;11.74;76.56;100801.31;5424711;32;34955;-70
2023/10/10 01:57:43;;;;;;;;;;;;;;;12.89;71.88;100794.16;5420597;32;35406;-73
2023/10/10 02:00:46;;;;;;;;;;;;;;;11.32;77.67;100773.00;5425254;32;34799;-74
2023/10/10 02:03:50;;;;;;;;;;;;;;;11.41;77.48;100765.72;5421906;32;34914;-74
2023/10/10 02:06:57;;;;;;;;;;;;;;;12.96;69.91;100746.34;5421198;32;35081;-70
2023/10/10 02:10:12;;;;;;;;;;;;;;;12.54;70.37;100751.63;5425550;32;35546;-70
2023/10/10 02:13:14;;;;;;;;;;;;;;;11.64;77.07;100792.03;5422325;32;34778;-70
2023/10/10 02:16:24;;;;;;;;;;;;;;;11.61;79.64;100797.41;5429940;32;34319;-69
2023/10/10 02:19:32;;;;;;;;;;;;;;;10.50;83.40;100804.75;5411577;32;34941;-70
2023/10/10 02:22:48;;;;;;;;;;;;;;;11.77;78.73;100803.81;5423973;32;35193;-70
2023/10/10 02:25:53;;;;;;;;;;;;;;;11.85;77.56;100820.25;5426990;32;35064;-70
2023/10/10 02:32:20;;;;;;;;;;;;;;;11.60;79.52;100800.97;5424957;32;34494;-70
2023/10/10 02:35:34;;;;;;;;;;;;;;;11.23;82.19;100797.03;5422675;32;34874;-70
2023/10/10 02:38:54;;;;;;;;;;;;;;;11.15;83.27;100804.31;5423810;32;35015;-73
2023/10/10 02:42:01;;;;;;;;;;;;;;;11.48;80.45;100801.41;5434887;32;35113;-72
2023/10/10 02:45:04;;;;;;;;;;;;;;;11.63;80.06;100808.75;5407811;32;34395;-69
2023/10/10 02:48:07;;;;;;;;;;;;;;;12.15;76.71;100817.34;5435302;32;34188;-69
2023/10/10 02:51:15;;;;;;;;;;;;;;;11.71;78.00;100830.37;5422564;32;34461;-73
2023/10/10 03:00:28;;;;;;;;;;;;;;;11.51;76.95;100817.94;5421282;32;35313;-69
2023/10/10 03:03:30;;;;;;;;;;;;;;;11.62;77.33;100834.22;5430637;32;34746;-69
2023/10/10 03:06:32;;;;;;;;;;;;;;;11.56;75.82;100844.97;5409115;32;35207;-69
2023/10/10 03:09:41;;;;;;;;;;;;;;;10.73;79.14;100848.69;5423303;32;34478;-74
2023/10/10 03:12:48;;;;;;;;;;;;;;;12.10;73.96;100848.28;5416182;32;34797;-70
2023/10/10 03:15:51;;;;;;;;;;;;;;;11.24;76.01;100851.34;5420498;32;34255;-70
2023/10/10 03:22:22;;;;;;;;;;;;;;;11.97;73.21;100833.84;5428718;32;35677;-74
2023/10/10 03:25:23;;;;;;;;;;;;;;;11.31;75.54;100829.19;5425945;32;35018;-70
2023/10/10 03:31:42;;;;;;;;;;;;;;;10.79;77.39;100849.34;5422658;32;34962;-70
2023/10/10 03:34:44;;;;;;;;;;;;;;;11.22;76.76;100842.66;5423662;32;35514;-74
2023/10/10 03:38:04;;;;;;;;;;;;;;;10.92;77.73;100843.69;5404693;32;35154;-75
2023/10/10 05:24:49;;;;;;;;;;;;;;;11.85;68.09;100912.44;5421365;32;34758;-70
2023/10/10 05:27:58;;;;;;;;;;;;;;;12.48;65.53;100907.41;5423524;32;34296;-74
2023/10/10 05:31:02;;;;;;;;;;;;;;;12.42;65.27;100913.78;5416590;32;34884;-70
2023/10/10 05:34:07;;;;;;;;;;;;;;;12.37;64.39;100907.84;5419150;32;34203;-70
2023/10/10 05:37:09;;;;;;;;;;;;;;;11.27;68.63;100919.69;5426393;32;34970;-74
2023/10/10 05:40:13;;;;;;;;;;;;;;;11.97;67.27;100926.03;5422237;32;35102;-69
2023/10/10 05:43:15;;;;;;;;;;;;;;;12.26;65.57;100920.56;5421161;32;35598;-70
2023/10/10 05:46:18;;;;;;;;;;;;;;;12.03;66.19;100925.81;5410841;32;35462;-71
2023/10/10 05:49:21;;;;;;;;;;;;;;;12.06;65.47;100938.91;5424229;32;33787;-71
2023/10/10 05:52:23;;;;;;;;;;;;;;;12.41;64.85;100946.34;5414636;32;34397;-76
2023/10/10 05:55:26;;;;;;;;;;;;;;;13.07;61.70;100940.25;5416615;32;34324;-79
2023/10/10 05:58:28;;;;;;;;;;;;;;;13.09;61.96;100938.44;5418939;32;34296;-69
2023/10/10 06:01:35;;;;;;;;;;;;;;;11.93;65.62;100938.47;5419986;32;34675;-70
2023/10/10 06:04:39;;;;;;;;;;;;;;;12.47;64.10;100938.19;5418962;32;35129;-71
2023/10/10 06:07:45;;;;;;;;;;;;;;;13.08;61.29;100942.00;5410038;32;34286;-72
2023/10/10 06:10:48;;;;;;;;;;;;;;;13.30;59.49;100934.94;5414475;32;34091;-68
2023/10/10 06:13:53;;;;;;;;;;;;;;;12.83;62.01;100956.16;5415869;32;35501;-75
2023/10/10 06:16:55;;;;;;;;;;;;;;;11.88;64.37;100959.72;5404515;32;35853;-69
2023/10/10 06:20:00;;;;;;;;;;;;;;;12.93;62.05;100973.34;5384088;32;35725;-71
2023/10/10 06:23:02;;;;;;;;;;;;;;;12.58;61.67;100965.94;5407496;32;34391;-66
2023/10/10 06:26:06;;;;;;;;;;;;;;;13.42;60.15;100971.41;5401679;32;32989;-71
2023/10/10 06:29:12;;;;;;;;;;;;;;;12.44;62.93;100983.16;5402811;32;34753;-72
2023/10/10 06:32:16;;;;;;;;;;;;;;;12.92;62.58;100986.59;5411214;32;35369;-70
2023/10/10 06:38:24;;;;;;;;;;;;;;;12.87;61.29;100994.69;5376521;32;34583;-71
2023/10/10 06:41:38;;;;;;;;;;;;;;;13.36;60.67;100994.56;5384178;32;34574;-76
2023/10/10 06:44:46;;;;;;;;;;;;;;;13.40;60.07;101004.06;5381553;32;35973;-70
2023/10/10 06:47:54;;;;;;;;;;;;;;;12.53;62.64;100999.53;5385472;32;34987;-70
2023/10/10 06:50:56;;;;;;;;;;;;;;;12.12;62.78;100992.25;5381669;32;34136;-69
2023/10/10 06:54:03;;;;;;;;;;;;;;;12.52;62.37;100992.53;5382908;32;34545;-69
2023/10/10 06:57:05;;;;;;;;;;;;;;;13.67;58.35;100988.88;5392645;32;35493;-80
2023/10/10 07:00:20;;;;;;;;;;;;;;;12.97;59.25;100993.41;5372950;32;36118;-69
2023/10/10 07:03:30;;;;;;;;;;;;;;;13.22;58.40;100990.69;5385803;32;34220;-70
2023/10/10 07:06:35;;;;;;;;;;;;;;;13.69;56.91;100990.50;5390151;32;34517;-67
2023/10/10 07:09:42;;;;;;;;;;;;;;;13.22;57.61;100995.12;5402972;32;34969;-65
2023/10/10 07:12:47;;;;;;;;;;;;;;;12.94;57.89;100996.16;5408097;32;34017;-70
2023/10/10 07:15:53;;;;;;;;;;;;;;;13.19;56.67;100998.69;5418750;32;35397;-71
2023/10/10 07:18:56;;;;;;;;;;;;;;;14.35;54.68;100993.75;5417321;32;33331;-70
2023/10/10 07:21:59;;;;;;;;;;;;;;;13.36;57.53;101013.03;5413305;32;34606;-68
2023/10/10 07:25:31;;;;;;;;;;;;;;;13.85;55.92;101003.94;5421583;32;35061;-70
2023/10/10 07:28:47;;;;;;;;;;;;;;;13.26;57.69;101009.87;5419206;32;35618;-69
2023/10/10 07:31:53;;;;;;;;;;;;;;;13.49;56.70;101001.91;5412393;32;35405;-71
2023/10/10 07:34:55;;;;;;;;;;;;;;;13.72;55.74;101027.37;5408856;32;34267;-72
2023/10/10 07:37:58;;;;;;;;;;;;;;;13.40;57.05;101027.84;5398673;32;34622;-69
2023/10/10 07:41:04;;;;;;;;;;;;;;;13.30;56.70;101019.41;5411397;32;34738;-70
2023/10/10 07:44:06;;;;;;;;;;;;;;;12.00;61.25;101012.87;5420488;32;35520;-70
2023/10/10 07:50:18;;;;;;;;;;;;;;;13.52;57.28;101004.44;5417586;32;33903;-70
2023/10/10 07:53:20;;;;;;;;;;;;;;;13.57;55.93;101006.00;5417427;32;35206;-71
2023/10/10 07:56:22;;;;;;;;;;;;;;;13.20;57.58;101007.47;5403795;32;35564;-70
2023/10/10 07:59:24;;;;;;;;;;;;;;;13.37;57.13;101014.75;5417193;32;34224;-72
2023/10/10 08:02:31;;;;;;;;;;;;;;;13.62;56.41;101017.25;5418367;32;36434;-72
2023/10/10 08:05:35;;;;;;;;;;;;;;;14.03;54.75;100995.19;5405673;32;34484;-71
2023/10/10 08:08:37;;;;;;;;;;;;;;;14.81;52.10;101004.03;5415088;32;34249;-71
2023/10/10 08:11:39;;;;;;;;;;;;;;;14.74;52.07;101007.91;5414220;32;34691;-71
2023/10/10 08:14:45;;;;;;;;;;;;;;;14.21;54.05;101004.09;5413616;32;34739;-70
2023/10/10 08:17:52;;;;;;;;;;;;;;;14.32;53.85;101001.84;5416577;32;35483;-71
2023/10/10 08:23:58;;;;;;;;;;;;;;;14.97;51.74;101010.34;5414108;32;34426;-69
2023/10/10 08:27:09;;;;;;;;;;;;;;;15.12;51.23;101014.91;5400732;32;34833;-71
2023/10/10 08:30:13;;;;;;;;;;;;;;;14.80;51.62;101024.34;5400634;32;34393;-71
2023/10/10 08:33:17;;;;;;;;;;;;;;;14.81;51.83;101025.22;5420103;32;31928;-70
2023/10/10 08:36:24;;;;;;;;;;;;;;;15.15;50.48;101019.19;5414806;32;34768;-70
2023/10/10 08:39:26;;;;;;;;;;;;;;;15.20;50.62;101030.44;5414335;32;35731;-74
2023/10/10 08:42:29;;;;;;;;;;;;;;;14.75;51.68;101033.44;5399020;32;33110;-72
2023/10/10 08:45:39;;;;;;;;;;;;;;;14.58;52.00;101029.78;5268961;32;34285;-71
2023/10/10 08:48:42;;;;;;;;;;;;;;;15.26;50.46;101022.16;5272005;32;36096;-71
2023/10/10 08:51:44;;;;;;;;;;;;;;;14.08;54.04;101047.84;5282561;32;36825;-71
2023/10/10 08:54:47;;;;;;;;;;;;;;;13.42;56.40;101055.88;5352161;32;34403;-69
2023/10/10 08:57:51;;;;;;;;;;;;;;;14.88;52.17;101037.25;5351549;32;35363;-74
2023/10/10 09:00:53;;;;;;;;;;;;;;;15.61;49.67;101039.00;5368514;32;36020;-72
2023/10/10 09:03:57;;;;;;;;;;;;;;;14.22;53.79;101041.97;5371564;32;35503;-71
2023/10/10 09:07:01;;;;;;;;;;;;;;;14.67;53.19;101038.22;5345842;32;34711;-70
2023/10/10 09:10:06;;;;;;;;;;;;;;;14.25;54.34;101042.69;5355482;32;34219;-66
2023/10/10 09:13:09;;;;;;;;;;;;;;;14.61;53.97;101057.87;5359211;32;36829;-71
2023/10/10 09:16:13;;;;;;;;;;;;;;;15.75;49.57;101051.59;5370075;32;35284;-74
2023/10/10 09:19:17;;;;;;;;;;;;;;;14.41;53.85;101061.38;5354235;32;34725;-72
2023/10/10 09:22:33;;;;;;;;;;;;;;;13.97;54.92;101064.16;5344179;32;36128;-72
2023/10/10 09:25:42;;;;;;;;;;;;;;;14.45;53.61;101057.69;5353494;32;34267;-74
2023/10/10 09:28:58;;;;;;;;;;;;;;;14.62;53.62;101063.13;5372465;32;34707;-72
2023/10/10 09:32:01;;;;;;;;;;;;;;;14.75;53.15;101070.47;5351409;32;35671;-75
2023/10/10 09:35:06;;;;;;;;;;;;;;;15.60;50.49;101062.94;5356195;32;36354;-75
2023/10/10 09:38:12;;;;;;;;;;;;;;;14.27;54.30;101077.00;5370722;32;35063;-71
2023/10/10 09:41:29;;;;;;;;;;;;;;;15.50;51.11;101075.75;5371991;32;35996;-71
2023/10/10 09:45:13;;;;;;;;;;;;;;;14.32;54.48;101080.31;5366381;32;35955;-74
2023/10/10 09:48:28;;;;;;;;;;;;;;;14.55;53.54;101082.81;5361322;32;34409;-74
2023/10/10 09:52:49;;;;;;;;;;;;;;;14.87;52.54;101081.34;5370470;32;34468;-73
2023/10/10 09:54:55;;;;;;;;;;;;;;;15.81;50.18;101074.28;5360771;32;35396;-75
2023/10/10 09:58:00;;;;;;;;;;;;;;;14.72;52.86;101068.84;5360632;32;34856;-70
2023/10/10 10:01:14;;;;;;;;;;;;;;;15.61;50.41;101068.16;5365840;32;34522;-72
2023/10/10 10:04:24;;;;;;;;;;;;;;;15.75;50.18;101070.13;5345352;32;36298;-70
2023/10/10 10:07:41;;;;;;;;;;;;;;;16.18;48.49;101071.50;5359167;32;34299;-73
2023/10/10 10:10:49;;;;;;;;;;;;;;;15.36;50.37;101075.56;5364146;32;35018;-71
2023/10/10 10:13:51;;;;;;;;;;;;;;;15.86;50.07;101065.16;5364181;32;35752;-74
2023/10/10 10:17:30;;;;;;;;;;;;;;;16.09;49.25;101052.53;5370151;32;35183;-71
2023/10/10 10:20:43;;;;;;;;;;;;;;;16.27;48.45;101053.38;5352782;32;34923;-74
2023/10/10 10:23:56;;;;;;;;;;;;;;;16.85;46.94;101044.97;5361130;32;36097;-74
2023/10/10 10:30:46;;;;;;;;;;;;;;;16.48;48.33;101057.53;5372779;32;35380;-73
2023/10/10 10:34:05;;;;;;;;;;;;;;;16.68;47.74;101048.50;5368870;32;35808;-71
2023/10/10 10:37:12;;;;;;;;;;;;;;;15.48;51.03;101060.87;5369932;32;34120;-71
2023/10/10 10:43:20;;;;;;;;;;;;;;;15.50;51.94;101067.81;5357792;32;35473;-70
2023/10/10 10:46:28;;;;;;;;;;;;;;;15.90;49.68;101060.56;5342961;32;34534;-71
2023/10/10 10:49:34;;;;;;;;;;;;;;;16.03;50.26;101051.03;5372983;32;34435;-71
2023/10/10 10:52:43;;;;;;;;;;;;;;;16.67;48.14;101049.47;5359508;32;35613;-69
2023/10/10 10:55:52;;;;;;;;;;;;;;;15.72;49.99;101056.22;5370482;32;34408;-74
2023/10/10 10:59:13;;;;;;;;;;;;;;;16.65;48.25;101046.91;5371558;32;35206;-75
2023/10/10 11:02:28;;;;;;;;;;;;;;;16.55;48.74;101050.13;5370054;32;36195;-73
2023/10/10 11:05:30;;;;;;;;;;;;;;;16.40;48.90;101049.12;5365894;32;33480;-69
2023/10/10 11:12:02;;;;;;;;;;;;;;;16.50;49.04;101053.87;5366397;32;35276;-73
2023/10/10 11:15:10;;;;;;;;;;;;;;;16.75;49.32;101048.16;5364133;32;36560;-73
2023/10/10 11:18:13;;;;;;;;;;;;;;;17.03;49.34;101050.16;5357987;32;34292;-74
2023/10/10 11:21:27;;;;;;;;;;;;;;;16.92;49.89;101043.72;5367624;32;35163;-75
2023/10/10 11:24:31;;;;;;;;;;;;;;;15.52;53.67;101046.53;5352614;32;35002;-76
2023/10/10 11:27:43;;;;;;;;;;;;;;;15.57;53.22;101034.78;5390788;32;33872;-71
2023/10/10 11:30:46;;;;;;;;;;;;;;;15.23;54.03;101034.72;5385627;32;35476;-72
2023/10/10 11:33:49;;;;;;;;;;;;;;;15.99;52.82;101036.25;5404070;32;35613;-68
2023/10/10 11:37:06;;;;;;;;;;;;;;;16.25;51.48;101030.44;5396065;32;34368;-68
2023/10/10 11:43:29;;;;;;;;;;;;;;;17.58;47.66;101024.88;5390700;32;34470;-73
2023/10/10 11:46:38;;;;;;;;;;;;;;;15.83;52.18;101027.34;5389304;32;34213;-67
2023/10/10 11:49:41;;;;;;;;;;;;;;;17.24;48.93;101021.50;5397767;32;36974;-72
2023/10/10 11:52:50;;;;;;;;;;;;;;;17.73;47.86;101018.72;5387959;32;34386;-69
2023/10/10 11:56:01;;;;;;;;;;;;;;;16.50;52.46;101013.22;5390863;32;34087;-71
2023/10/10 11:59:09;;;;;;;;;;;;;;;16.59;50.71;101007.41;5403115;32;34366;-71
2023/10/10 12:02:16;;;;;;;;;;;;;;;17.42;49.56;101002.81;5402394;32;34084;-69
2023/10/10 12:08:30;;;;;;;;;;;;;;;17.50;49.28;101008.53;5384502;32;35110;-69
2023/10/10 12:11:33;;;;;;;;;;;;;;;18.07;47.73;100996.28;5387499;32;35111;-74
2023/10/10 12:14:35;;;;;;;;;;;;;;;16.88;51.25;100997.91;5412061;32;35571;-75
2023/10/10 12:17:38;;;;;;;;;;;;;;;17.46;49.77;100993.75;5406899;32;34341;-75
2023/10/10 12:20:44;;;;;;;;;;;;;;;18.07;48.32;100982.13;5416193;32;34391;-74
2023/10/10 12:23:49;;;;;;;;;;;;;;;18.31;47.79;100977.97;5416954;32;34927;-74
2023/10/10 12:26:54;;;;;;;;;;;;;;;17.71;49.67;100985.16;5369068;32;35027;-74
2023/10/10 12:29:56;;;;;;;;;;;;;;;18.73;47.04;100978.91;5390094;32;33557;-70
2023/10/10 12:32:59;;;;;;;;;;;;;;;18.74;46.93;100979.75;5406695;32;34386;-68
2023/10/10 12:36:09;;;;;;;;;;;;;;;19.03;45.45;100978.75;5413705;32;36824;-64
2023/10/10 12:39:14;;;;;;;;;;;;;;;18.99;45.74;100995.03;5406498;32;34835;-68
2023/10/10 12:42:17;;;;;;;;;;;;;;;18.53;47.56;100993.44;5416729;32;34820;-66
2023/10/10 12:45:19;;;;;;;;;;;;;;;17.92;49.13;100985.72;5404533;32;32840;-71
2023/10/10 12:48:21;;;;;;;;;;;;;;;18.05;49.61;100981.38;5411791;32;34342;-73
2023/10/10 12:51:27;;;;;;;;;;;;;;;18.31;48.63;100972.66;5413014;32;34583;-74
2023/10/10 12:54:34;;;;;;;;;;;;;;;19.30;46.37;100973.41;5385251;32;34436;-73
2023/10/10 12:57:38;;;;;;;;;;;;;;;18.54;48.16;100981.84;5419902;32;34559;-74
2023/10/10 13:01:05;;;;;;;;;;;;;;;18.97;47.30;100987.13;5410729;32;34890;-70
2023/10/10 13:04:07;;;;;;;;;;;;;;;18.60;48.33;100977.94;5409221;32;34097;-75
2023/10/10 13:07:10;;;;;;;;;;;;;;;17.96;50.29;100979.25;5403064;32;35268;-74
2023/10/10 13:10:13;;;;;;;;;;;;;;;18.42;49.57;100977.31;5401721;32;34595;-74
2023/10/10 13:13:24;;;;;;;;;;;;;;;18.49;48.94;100975.97;5409663;32;34630;-68
2023/10/10 13:17:28;;;;;;;;;;;;;;;18.76;48.14;100978.72;5399665;32;35042;-69
2023/10/10 13:19:48;;;;;;;;;;;;;;;18.83;48.85;100972.06;5361319;32;34868;-75
2023/10/10 13:22:55;;;;;;;;;;;;;;;19.03;48.09;100970.75;5334698;32;34236;-72
2023/10/10 13:25:57;;;;;;;;;;;;;;;18.27;50.07;100967.59;5347921;32;35454;-74
2023/10/10 13:29:01;;;;;;;;;;;;;;;18.14;51.35;100970.16;5359543;32;34756;-70
2023/10/10 13:32:05;;;;;;;;;;;;;;;20.61;45.10;100954.66;5370330;32;34109;-73
2023/10/10 13:35:08;;;;;;;;;;;;;;;23.07;38.97;100941.03;5360463;32;35651;-69
2023/10/10 13:38:12;;;;;;;;;;;;;;;27.55;30.71;100927.41;5361945;32;34104;-74
2023/10/10 13:41:18;;;;;;;;;;;;;;;25.21;34.25;100938.47;5377152;32;35475;-76
2023/10/10 13:44:21;;;;;;;;;;;;;;;27.79;29.78;100919.50;5407456;32;34578;-80
2023/10/10 13:47:25;;;;;;;;;;;;;;;26.26;32.10;100930.34;5415303;32;34149;-75
2023/10/10 13:50:40;;;;;;;;;;;;;;;24.17;35.14;100943.22;5412639;32;34367;-74
2023/10/10 13:53:44;;;;;;;;;;;;;;;23.15;37.04;100935.88;5403894;32;34448;-75
2023/10/10 13:56:50;;;;;;;;;;;;;;;21.69;40.68;100927.84;5408203;32;34406;-71
2023/10/10 13:59:52;;;;;;;;;;;;;;;21.90;40.62;100936.06;5414284;32;34420;-71
2023/10/10 14:03:05;;;;;;;;;;;;;;;21.78;41.22;100935.19;5404073;32;36210;-69
2023/10/10 14:06:10;;;;;;;;;;;;;;;21.29;42.50;100928.22;5420055;32;34314;-74
2023/10/10 14:09:21;;;;;;;;;;;;;;;19.77;46.82;100942.72;5413873;32;35223;-71
2023/10/10 14:12:24;;;;;;;;;;;;;;;19.85;46.65;100943.06;5413380;32;34434;-71
2023/10/10 14:15:26;;;;;;;;;;;;;;;19.79;46.99;100940.81;5410108;32;35552;-73
2023/10/10 14:18:30;;;;;;;;;;;;;;;20.62;44.96;100937.69;5420259;32;35185;-71
2023/10/10 14:21:32;;;;;;;;;;;;;;;19.84;46.80;100940.50;5419445;32;34652;-70
2023/10/10 14:24:34;;;;;;;;;;;;;;;19.56;48.40;100941.50;5413157;32;34971;-71
2023/10/10 14:27:36;;;;;;;;;;;;;;;18.94;49.87;100948.25;5408556;32;33354;-73
2023/10/10 14:30:38;;;;;;;;;;;;;;;18.91;49.76;100953.75;5420684;32;34634;-73
2023/10/10 14:33:40;;;;;;;;;;;;;;;18.57;51.00;100956.84;5421748;32;34757;-71
2023/10/10 14:36:42;;;;;;;;;;;;;;;18.78;50.70;100952.84;5417983;32;34825;-71
2023/10/10 14:39:44;;;;;;;;;;;;;;;18.84;51.04;100957.78;5419800;32;34827;-74
2023/10/10 14:42:46;;;;;;;;;;;;;;;19.32;49.90;100951.97;5426378;32;34812;-71
2023/10/10 14:45:48;;;;;;;;;;;;;;;18.79;51.32;100954.53;5415671;32;34299;-70
2023/10/10 14:49:06;;;;;;;;;;;;;;;19.36;49.73;100946.34;5421663;32;35058;-73
2023/10/10 14:52:09;;;;;;;;;;;;;;;18.79;51.04;100946.56;5425466;32;34790;-71
2023/10/10 14:55:23;;;;;;;;;;;;;;;18.72;51.19;100947.91;5409789;32;35002;-73
2023/10/10 14:58:27;;;;;;;;;;;;;;;17.95;53.74;100953.62;5418462;32;35742;-72
2023/10/10 15:01:34;;;;;;;;;;;;;;;17.83;53.57;100945.44;5422664;32;35964;-73
2023/10/10 15:04:38;;;;;;;;;;;;;;;18.66;51.70;100948.28;5425876;32;34851;-71
2023/10/10 15:07:42;;;;;;;;;;;;;;;18.52;51.87;100953.62;5420191;32;34989;-72
2023/10/10 15:10:44;;;;;;;;;;;;;;;18.44;52.09;100955.91;5412884;32;34779;-71
2023/10/10 15:13:46;;;;;;;;;;;;;;;18.91;50.93;100956.41;5420431;32;35097;-71
2023/10/10 15:16:49;;;;;;;;;;;;;;;18.48;52.73;100968.91;5423810;32;35384;-72
2023/10/10 15:19:51;;;;;;;;;;;;;;;19.01;51.12;100964.69;5426800;32;34736;-72
2023/10/10 15:22:53;;;;;;;;;;;;;;;17.79;54.11;100959.88;5422641;32;33438;-73
2023/10/10 15:25:56;;;;;;;;;;;;;;;17.47;54.95;100975.03;5435114;32;35731;-73
2023/10/10 15:28:59;;;;;;;;;;;;;;;17.91;53.58;100968.06;5423042;32;34093;-70
2023/10/10 15:32:03;;;;;;;;;;;;;;;17.93;53.52;100984.78;5427370;32;34406;-72
2023/10/10 15:35:08;;;;;;;;;;;;;;;18.73;51.52;100981.56;5418295;32;34979;-71
2023/10/10 15:38:11;;;;;;;;;;;;;;;19.09;50.96;100986.34;5424077;32;35899;-70
2023/10/10 15:41:25;;;;;;;;;;;;;;;18.39;52.24;100988.12;5428103;32;34422;-73
2023/10/10 15:44:27;;;;;;;;;;;;;;;17.98;53.67;100990.69;5423728;32;34873;-72
2023/10/10 15:47:29;;;;;;;;;;;;;;;18.51;52.04;100991.84;5424244;32;35483;-70
2023/10/10 15:50:31;;;;;;;;;;;;;;;18.33;52.42;100984.03;5420100;32;35058;-70
2023/10/10 15:53:38;;;;;;;;;;;;;;;17.75;54.81;100994.69;5431394;32;34204;-72
2023/10/10 15:56:40;;;;;;;;;;;;;;;18.65;52.09;100994.47;5414770;32;35082;-71
2023/10/10 15:59:44;;;;;;;;;;;;;;;18.49;52.23;100999.06;5421195;32;34813;-73
2023/10/10 16:02:52;;;;;;;;;;;;;;;18.28;52.90;100986.13;5423707;32;34379;-71
2023/10/10 16:05:54;;;;;;;;;;;;;;;17.82;53.65;100990.72;5414313;32;34798;-74
2023/10/10 16:08:58;;;;;;;;;;;;;;;17.95;53.33;100985.53;5415444;32;34999;-72
2023/10/10 16:12:00;;;;;;;;;;;;;;;17.52;54.51;101002.22;5423527;32;35062;-73
2023/10/10 16:15:05;;;;;;;;;;;;;;;17.28;55.96;101007.13;5416611;32;34298;-72
2023/10/10 16:18:27;;;;;;;;;;;;;;;17.70;54.86;101002.06;5420175;32;34840;-71
2023/10/10 16:21:31;;;;;;;;;;;;;;;17.27;56.74;101002.75;5423767;32;35283;-73
2023/10/10 16:24:33;;;;;;;;;;;;;;;17.42;56.49;101008.12;5423622;32;34912;-71
2023/10/10 16:27:36;;;;;;;;;;;;;;;17.16;57.16;101018.44;5419046;32;34708;-72
2023/10/10 16:30:39;;;;;;;;;;;;;;;16.50;59.99;101013.22;5405733;32;34563;-73
2023/10/10 16:33:41;;;;;;;;;;;;;;;16.67;59.63;101014.94;5417224;32;34756;-72
2023/10/10 16:36:48;;;;;;;;;;;;;;;17.58;56.76;101015.12;5417921;32;35839;-72
2023/10/10 16:39:50;;;;;;;;;;;;;;;17.07;57.85;101018.97;5426218;32;34272;-73
2023/10/10 16:42:55;;;;;;;;;;;;;;;17.20;57.92;101019.16;5422891;32;34464;-71
2023/10/10 16:45:57;;;;;;;;;;;;;;;17.02;58.20;101021.03;5433207;32;34476;-73
2023/10/10 16:48:59;;;;;;;;;;;;;;;17.24;57.71;101018.84;5420063;32;35116;-71
2023/10/10 16:52:05;;;;;;;;;;;;;;;17.27;57.49;101012.53;5418995;32;34670;-72
2023/10/10 16:55:10;;;;;;;;;;;;;;;16.79;59.11;101024.94;5423909;32;33882;-71
2023/10/10 16:58:15;;;;;;;;;;;;;;;16.97;58.56;101036.34;5423801;32;34326;-72
2023/10/10 17:01:20;;;;;;;;;;;;;;;16.94;58.77;101040.03;5429725;32;35235;-72
2023/10/10 17:04:24;;;;;;;;;;;;;;;16.72;59.35;101040.34;5424132;32;34339;-69
2023/10/10 17:07:27;;;;;;;;;;;;;;;16.69;59.58;101044.94;5427782;32;34406;-72
2023/10/10 17:10:29;;;;;;;;;;;;;;;16.44;60.80;101046.25;5425200;32;34945;-71
2023/10/10 17:13:37;;;;;;;;;;;;;;;16.71;59.94;101051.91;5423035;32;34267;-69
2023/10/10 17:16:40;;;;;;;;;;;;;;;16.67;60.17;101054.75;5426997;32;34527;-71
2023/10/10 17:19:42;;;;;;;;;;;;;;;16.86;59.65;101049.34;5424180;32;34441;-71
2023/10/10 17:22:45;;;;;;;;;;;;;;;17.07;58.85;101048.19;5427166;32;34836;-73
2023/10/10 17:25:47;;;;;;;;;;;;;;;16.81;59.47;101051.38;5431559;32;34460;-70
2023/10/10 17:28:49;;;;;;;;;;;;;;;15.97;62.61;101064.59;5425933;32;34593;-70
2023/10/10 17:31:53;;;;;;;;;;;;;;;15.67;64.27;101059.94;5425315;32;34464;-71
2023/10/10 17:34:55;;;;;;;;;;;;;;;16.08;62.78;101064.06;5424393;32;34647;-71
2023/10/10 17:37:57;;;;;;;;;;;;;;;15.82;63.83;101065.41;5419055;32;34396;-72
2023/10/10 17:41:00;;;;;;;;;;;;;;;16.55;61.71;101066.03;5424250;32;35120;-72
2023/10/10 17:44:08;;;;;;;;;;;;;;;16.82;60.38;101061.09;5426911;32;35025;-71
2023/10/10 17:47:14;;;;;;;;;;;;;;;16.97;59.86;101066.41;5415368;32;34419;-71
2023/10/10 17:50:17;;;;;;;;;;;;;;;16.75;60.33;101071.19;5410773;32;35881;-73
2023/10/10 17:53:25;;;;;;;;;;;;;;;16.30;62.02;101063.84;5412903;32;35169;-70
2023/10/10 17:56:44;;;;;;;;;;;;;;;16.51;62.09;101079.47;5407053;32;35807;-72
2023/10/10 17:59:46;;;;;;;;;;;;;;;16.35;62.45;101075.91;5432827;32;34348;-72
2023/10/10 18:02:49;;;;;;;;;;;;;;;15.48;65.80;101080.28;5421306;32;35483;-71
2023/10/10 18:05:51;;;;;;;;;;;;;;;16.16;64.00;101091.91;5413099;32;36933;-71
2023/10/10 18:08:54;;;;;;;;;;;;;;;17.03;60.93;101081.16;5432514;32;34573;-71
2023/10/10 18:12:00;;;;;;;;;;;;;;;17.14;60.41;101089.41;5429164;32;34331;-71
2023/10/10 18:15:07;;;;;;;;;;;;;;;15.81;65.07;101101.66;5436114;32;36181;-71
2023/10/10 18:18:10;;;;;;;;;;;;;;;16.39;63.68;101103.12;5425858;32;34594;-73